KFET/FET METAR and TAF weather

Enter ICAO airport designator
Station Type Date Time Source
KFET METAR 2020/01/23 15:15 UTC NOAA

KFET 231515Z AUTO 33004KT 1 1/2SM -SN OVC003 01/01 A2992 RMK AO2 T00100010


Station Type Date Time Source
KFET Decoded METAR 2020/01/23 15:15 UTC NOAA

Fremont Municipal Airport, NE, United States (KFET) 41-27N 096-31W
Jan 23, 2020 - 10:15 AM EST / 2020.01.23 1515 UTC
Wind: from the NNW (330 degrees) at 5 MPH (4 KT):0
Visibility: 1 1/2 mile(s):0
Sky conditions: overcast
Weather: light snow
Temperature: 33.8 F (1.0 C)
Windchill: 28 F (-2 C):1
Dew Point: 33.8 F (1.0 C)
Relative Humidity: 100%
Pressure (altimeter): 29.92 in. Hg (1013 hPa)
ob: KFET 231515Z AUTO 33004KT 1 1/2SM -SN OVC003 01/01 A2992 RMK AO2 T00100010
cycle: 15

Station Type Date Time Source
KFET TAF UTC NOAA

Error!

Example: see airport list